Time;durP1;ratioP1;P1;durP2;ratioP2;P2;SDS_P1;SDS_P2;PMS_P1;PMS_P2;Temp;Humidity;BMP_temperature;BMP_pressure;BME280_temperature;BME280_humidity;BME280_pressure;Samples;Min_cycle;Max_cycle;Signal;HPM_P1;HPM_P2
2023/09/19 00:00:09;;;;;;;1999.90;999.90;;;18.20;99.90;;;;;;5091305;28;20942;-72
2023/09/19 00:02:39;;;;;;;1999.90;999.90;;;18.20;99.90;;;;;;5089879;28;20941;-71
2023/09/19 00:05:07;;;;;;;1999.90;999.90;;;18.10;99.90;;;;;;5089238;28;20425;-72
2023/09/19 00:07:36;;;;;;;1999.90;999.90;;;18.20;99.90;;;;;;5091142;28;20432;-71
2023/09/19 00:10:04;;;;;;;1999.90;999.90;;;18.30;99.90;;;;;;5091017;28;20534;-73
2023/09/19 00:12:31;;;;;;;1999.90;999.90;;;18.30;99.90;;;;;;5086724;28;20438;-73
2023/09/19 00:14:59;;;;;;;1999.90;999.90;;;18.40;99.90;;;;;;5090334;28;20433;-71
2023/09/19 00:17:30;;;;;;;1999.90;999.90;;;18.40;99.90;;;;;;5089514;28;20865;-71
2023/09/19 00:19:57;;;;;;;1999.90;999.90;;;18.50;99.90;;;;;;5090911;28;20457;-71
2023/09/19 00:22:26;;;;;;;1999.90;999.90;;;18.40;99.90;;;;;;5089500;28;20426;-73
2023/09/19 00:24:53;;;;;;;1999.90;999.90;;;18.30;99.90;;;;;;5090698;28;20431;-71
2023/09/19 00:27:20;;;;;;;1999.90;999.90;;;18.40;99.90;;;;;;5090936;28;20425;-72
2023/09/19 00:29:47;;;;;;;1999.90;999.90;;;18.30;99.90;;;;;;5090713;28;20430;-70
2023/09/19 00:32:13;;;;;;;1999.90;999.90;;;18.40;99.90;;;;;;5089624;28;20436;-69
2023/09/19 00:34:42;;;;;;;1999.90;999.90;;;18.40;99.90;;;;;;5090754;28;20429;-72
2023/09/19 00:37:11;;;;;;;1999.90;999.90;;;18.30;99.90;;;;;;5090571;28;20430;-71
2023/09/19 00:39:38;;;;;;;1999.90;999.90;;;18.50;99.90;;;;;;5090479;28;20426;-72
2023/09/19 00:42:05;;;;;;;1999.90;999.90;;;18.50;99.90;;;;;;5089504;28;20511;-71
2023/09/19 00:44:34;;;;;;;1999.90;999.90;;;18.40;99.90;;;;;;5089928;28;20427;-72
2023/09/19 00:47:02;;;;;;;1999.90;999.90;;;18.60;99.90;;;;;;5089913;28;20450;-74
2023/09/19 00:49:30;;;;;;;1999.90;999.90;;;18.40;99.90;;;;;;5089881;28;20999;-71
2023/09/19 00:51:59;;;;;;;1999.90;999.90;;;18.40;99.90;;;;;;5085171;28;20439;-73
2023/09/19 00:54:28;;;;;;;1999.90;999.90;;;18.40;99.90;;;;;;5089220;28;20911;-71
2023/09/19 00:56:55;;;;;;;1999.90;999.90;;;18.30;99.90;;;;;;5088058;28;20498;-71
2023/09/19 00:59:22;;;;;;;1999.90;999.90;;;18.30;99.90;;;;;;5089454;28;20449;-73
2023/09/19 01:01:53;;;;;;;1999.90;999.90;;;18.20;99.90;;;;;;5090003;28;20433;-71
2023/09/19 01:04:20;;;;;;;1999.90;999.90;;;18.30;99.90;;;;;;5089628;28;20430;-71
2023/09/19 01:06:49;;;;;;;1999.90;999.90;;;18.30;99.90;;;;;;5087886;28;20505;-71
2023/09/19 01:09:18;;;;;;;1999.90;999.90;;;18.30;99.90;;;;;;5085954;28;20430;-71
2023/09/19 01:11:49;;;;;;;1999.90;999.90;;;18.20;99.90;;;;;;5088090;28;20440;-72
2023/09/19 01:14:28;;;;;;;1999.90;999.90;;;18.20;99.90;;;;;;5088074;28;20429;-72
2023/09/19 01:17:04;;;;;;;1999.90;999.90;;;18.20;99.90;;;;;;5082257;28;20858;-72
2023/09/19 01:20:07;;;;;;;1999.90;999.90;;;18.10;99.90;;;;;;5088157;28;20511;-74
2023/09/19 01:22:45;;;;;;;1999.90;999.90;;;18.10;99.90;;;;;;5089662;28;20433;-71
2023/09/19 01:25:44;;;;;;;1999.90;999.90;;;18.10;99.90;;;;;;5088225;28;20512;-70
2023/09/19 01:28:28;;;;;;;1999.90;999.90;;;18.10;99.90;;;;;;5086914;28;20422;-73
2023/09/19 01:31:01;;;;;;;1999.90;999.90;;;18.10;99.90;;;;;;5083506;28;20516;-71
2023/09/19 01:33:34;;;;;;;1999.90;999.90;;;18.10;99.90;;;;;;5090904;28;20426;-71
2023/09/19 01:36:00;;;;;;;1999.90;999.90;;;18.10;99.90;;;;;;5089705;28;20983;-71
2023/09/19 01:38:27;;;;;;;1999.90;999.90;;;18.00;99.90;;;;;;5089424;28;20434;-69
2023/09/19 01:41:03;;;;;;;1999.90;999.90;;;18.10;99.90;;;;;;5088366;28;20463;-72
2023/09/19 01:43:35;;;;;;;1999.90;999.90;;;18.20;99.90;;;;;;5088022;28;20434;-72
2023/09/19 01:46:10;;;;;;;1999.90;999.90;;;18.00;99.90;;;;;;5084500;28;20430;-71
2023/09/19 01:48:47;;;;;;;1999.90;999.90;;;17.90;99.90;;;;;;5089358;28;20907;-71
2023/09/19 01:51:19;;;;;;;1999.90;999.90;;;17.80;99.90;;;;;;5088792;28;20425;-74
2023/09/19 01:53:56;;;;;;;1999.90;999.90;;;17.80;99.90;;;;;;5089229;28;20432;-72
2023/09/19 01:56:29;;;;;;;1999.90;999.90;;;17.80;99.90;;;;;;5087086;28;20769;-75
2023/09/19 01:59:00;;;;;;;1999.90;999.90;;;17.70;99.90;;;;;;5089307;28;20432;-71
2023/09/19 02:01:29;;;;;;;1999.90;999.90;;;17.70;99.90;;;;;;5089439;28;20812;-74
2023/09/19 02:03:56;;;;;;;1999.90;999.90;;;17.70;99.90;;;;;;5086837;28;20426;-71
2023/09/19 02:06:26;;;;;;;1999.90;999.90;;;17.70;99.90;;;;;;5088451;28;20436;-74
2023/09/19 02:08:54;;;;;;;1999.90;999.90;;;17.70;99.90;;;;;;5089644;28;20803;-71
2023/09/19 02:11:21;;;;;;;1999.90;999.90;;;17.70;99.90;;;;;;5088012;28;20430;-71
2023/09/19 02:13:48;;;;;;;1999.90;999.90;;;17.70;99.90;;;;;;5087798;28;20947;-73
2023/09/19 02:16:20;;;;;;;1999.90;999.90;;;17.70;99.90;;;;;;5089058;28;20439;-70
2023/09/19 02:18:48;;;;;;;1999.90;999.90;;;17.70;99.90;;;;;;5088329;28;20431;-71
2023/09/19 02:21:15;;;;;;;1999.90;999.90;;;17.60;99.90;;;;;;5088988;28;20432;-71
2023/09/19 02:23:42;;;;;;;1999.90;999.90;;;17.50;99.90;;;;;;5087635;28;20433;-74
2023/09/19 02:26:09;;;;;;;1999.90;999.90;;;17.50;99.90;;;;;;5089152;28;20426;-69
2023/09/19 02:28:36;;;;;;;1999.90;999.90;;;17.40;99.90;;;;;;5091666;28;20430;-71
2023/09/19 02:31:05;;;;;;;1999.90;999.90;;;17.50;99.90;;;;;;5093106;28;20422;-73
2023/09/19 02:33:32;;;;;;;1999.90;999.90;;;17.50;99.90;;;;;;5092291;28;20911;-71
2023/09/19 02:36:03;;;;;;;1999.90;999.90;;;17.40;99.90;;;;;;5093305;28;20437;-71
2023/09/19 02:38:30;;;;;;;1999.90;999.90;;;17.40;99.90;;;;;;5092834;28;20512;-71
2023/09/19 02:40:57;;;;;;;1999.90;999.90;;;17.50;99.90;;;;;;5092370;28;20436;-73
2023/09/19 02:43:24;;;;;;;1999.90;999.90;;;17.80;99.90;;;;;;5091688;28;20507;-71
2023/09/19 02:45:53;;;;;;;1999.90;999.90;;;17.40;99.90;;;;;;5092621;28;20868;-72
2023/09/19 02:48:20;;;;;;;1999.90;999.90;;;17.40;99.90;;;;;;5092728;28;20508;-72
2023/09/19 02:50:47;;;;;;;1999.90;999.90;;;17.30;99.90;;;;;;5092597;28;20982;-71
2023/09/19 02:53:15;;;;;;;1999.90;999.90;;;17.60;99.90;;;;;;5090884;28;20860;-72
2023/09/19 02:55:42;;;;;;;1999.90;999.90;;;17.30;99.90;;;;;;5091597;28;20517;-73
2023/09/19 02:58:11;;;;;;;1999.90;999.90;;;17.30;99.90;;;;;;5092265;28;20505;-71
2023/09/19 03:00:38;;;;;;;1999.90;999.90;;;17.20;99.90;;;;;;5092431;28;20462;-70
2023/09/19 03:03:06;;;;;;;1999.90;999.90;;;17.20;99.90;;;;;;5091199;28;20907;-72
2023/09/19 03:05:33;;;;;;;1999.90;999.90;;;17.20;99.90;;;;;;5090562;28;20431;-70
2023/09/19 03:08:01;;;;;;;1999.90;999.90;;;17.20;99.90;;;;;;5091566;28;20984;-71
2023/09/19 03:10:30;;;;;;;1999.90;999.90;;;17.20;99.90;;;;;;5090585;28;20422;-72
2023/09/19 03:12:58;;;;;;;1999.90;999.90;;;17.20;99.90;;;;;;5089321;28;20425;-67
2023/09/19 03:15:24;;;;;;;1999.90;999.90;;;17.10;99.90;;;;;;5087825;28;20438;-72
2023/09/19 03:17:53;;;;;;;1999.90;999.90;;;17.10;99.90;;;;;;5090982;28;20430;-73
2023/09/19 03:20:21;;;;;;;1999.90;999.90;;;17.00;99.90;;;;;;5086874;28;20425;-72
2023/09/19 03:22:47;;;;;;;1999.90;999.90;;;17.00;99.90;;;;;;5089863;28;20429;-74
2023/09/19 03:25:15;;;;;;;1999.90;999.90;;;17.10;99.90;;;;;;5088326;28;20481;-72
2023/09/19 03:27:43;;;;;;;1999.90;999.90;;;17.10;99.90;;;;;;5090876;28;20463;-72
2023/09/19 03:30:13;;;;;;;1999.90;999.90;;;17.00;99.90;;;;;;5093770;28;20501;-71
2023/09/19 03:32:45;;;;;;;1999.90;999.90;;;17.00;99.90;;;;;;5088886;28;20466;-69
2023/09/19 03:35:14;;;;;;;1999.90;999.90;;;16.90;99.90;;;;;;5086262;28;20424;-72
2023/09/19 03:37:41;;;;;;;1999.90;999.90;;;16.90;99.90;;;;;;5090837;28;20457;-72
2023/09/19 03:40:10;;;;;;;1999.90;999.90;;;17.00;99.90;;;;;;5088622;28;20425;-71
2023/09/19 03:42:39;;;;;;;1999.90;999.90;;;17.00;99.90;;;;;;5088612;28;20853;-72
2023/09/19 03:45:11;;;;;;;1999.90;999.90;;;17.00;99.90;;;;;;5091269;28;20437;-72
2023/09/19 03:47:38;;;;;;;1999.90;999.90;;;16.90;99.90;;;;;;5091070;28;20426;-72
2023/09/19 03:50:08;;;;;;;1999.90;999.90;;;16.80;99.90;;;;;;5089907;28;20426;-73
2023/09/19 03:52:35;;;;;;;1999.90;999.90;;;16.90;99.90;;;;;;5090448;28;20426;-72
2023/09/19 03:55:04;;;;;;;1999.90;999.90;;;16.90;99.90;;;;;;5084185;28;20835;-71
2023/09/19 03:57:31;;;;;;;1999.90;999.90;;;16.80;99.90;;;;;;5091063;28;20944;-70
2023/09/19 03:59:58;;;;;;;1999.90;999.90;;;17.10;99.90;;;;;;5089962;28;20421;-71
2023/09/19 04:02:32;;;;;;;1999.90;999.90;;;16.80;99.90;;;;;;5090064;28;20955;-72
2023/09/19 04:04:59;;;;;;;1999.90;999.90;;;16.80;99.90;;;;;;5084786;28;20440;-71
2023/09/19 04:07:28;;;;;;;1999.90;999.90;;;17.00;99.90;;;;;;5090969;28;20426;-73
2023/09/19 04:09:55;;;;;;;1999.90;999.90;;;16.80;99.90;;;;;;5087156;28;20440;-75
2023/09/19 04:12:22;;;;;;;1999.90;999.90;;;16.70;99.90;;;;;;5089241;28;20509;-72
2023/09/19 04:14:49;;;;;;;1999.90;999.90;;;16.70;99.90;;;;;;5090219;28;20436;-72
2023/09/19 04:17:16;;;;;;;1999.90;999.90;;;16.60;99.90;;;;;;5091519;28;20803;-73
2023/09/19 04:19:45;;;;;;;1999.90;999.90;;;16.50;99.90;;;;;;5090183;28;20425;-72
2023/09/19 04:22:12;;;;;;;1999.90;999.90;;;16.40;99.90;;;;;;5087498;28;20942;-72
2023/09/19 04:24:39;;;;;;;1999.90;999.90;;;16.40;99.90;;;;;;5087977;28;20434;-72
2023/09/19 04:27:08;;;;;;;1999.90;999.90;;;16.40;99.90;;;;;;5090145;28;20439;-72
2023/09/19 04:29:34;;;;;;;1999.90;999.90;;;16.40;99.90;;;;;;5090288;28;20430;-72
2023/09/19 04:32:04;;;;;;;1999.90;999.90;;;16.40;99.90;;;;;;5091494;28;20907;-71
2023/09/19 04:34:31;;;;;;;1999.90;999.90;;;16.30;99.90;;;;;;5089093;28;20495;-71
2023/09/19 04:37:00;;;;;;;1999.90;999.90;;;16.40;99.90;;;;;;5089759;28;20434;-71
2023/09/19 04:39:27;;;;;;;1999.90;999.90;;;16.40;99.90;;;;;;5089458;28;20493;-69
2023/09/19 04:41:54;;;;;;;1999.90;999.90;;;16.30;99.90;;;;;;5088082;28;20434;-73
2023/09/19 04:44:21;;;;;;;1999.90;999.90;;;16.30;99.90;;;;;;5089583;28;20437;-71
2023/09/19 04:46:48;;;;;;;1999.90;999.90;;;16.20;99.90;;;;;;5089905;28;20437;-72
2023/09/19 04:49:15;;;;;;;1999.90;999.90;;;16.20;99.90;;;;;;5089796;28;20433;-72
2023/09/19 04:51:42;;;;;;;1999.90;999.90;;;16.20;99.90;;;;;;5087125;28;20426;-72
2023/09/19 04:54:10;;;;;;;1999.90;999.90;;;16.20;99.90;;;;;;5088858;28;20942;-72
2023/09/19 04:56:40;;;;;;;1999.90;999.90;;;16.20;99.90;;;;;;5089279;28;20426;-73
2023/09/19 04:59:06;;;;;;;1999.90;999.90;;;16.20;99.90;;;;;;5089676;28;20468;-73
2023/09/19 05:01:33;;;;;;;1999.90;999.90;;;16.10;99.90;;;;;;5087633;28;20449;-71
2023/09/19 05:04:00;;;;;;;1999.90;999.90;;;16.50;99.90;;;;;;5088840;28;20433;-72
2023/09/19 05:06:27;;;;;;;1999.90;999.90;;;16.10;99.90;;;;;;5090573;28;20461;-71
2023/09/19 05:08:54;;;;;;;1999.90;999.90;;;16.10;99.90;;;;;;5090173;28;20448;-72
2023/09/19 05:11:22;;;;;;;1999.90;999.90;;;16.10;99.90;;;;;;5086772;28;20448;-74
2023/09/19 05:13:50;;;;;;;1999.90;999.90;;;16.10;99.90;;;;;;5088607;28;20438;-75
2023/09/19 05:16:17;;;;;;;1999.90;999.90;;;16.20;99.90;;;;;;5089262;28;20426;-72
2023/09/19 05:18:44;;;;;;;1999.90;999.90;;;16.10;99.90;;;;;;5088763;28;20433;-72
2023/09/19 05:21:12;;;;;;;1999.90;999.90;;;16.20;99.90;;;;;;5088009;28;20479;-72
2023/09/19 05:23:38;;;;;;;1999.90;999.90;;;16.20;99.90;;;;;;5089209;28;20522;-71
2023/09/19 05:26:05;;;;;;;1999.90;999.90;;;16.60;99.90;;;;;;5089371;28;20425;-72
2023/09/19 05:28:34;;;;;;;1999.90;999.90;;;16.30;99.90;;;;;;5087497;28;20440;-72
2023/09/19 05:31:02;;;;;;;1999.90;999.90;;;16.30;99.90;;;;;;5087867;28;20487;-72
2023/09/19 05:33:30;;;;;;;1999.90;999.90;;;16.30;99.90;;;;;;5088943;28;20424;-72
2023/09/19 05:35:57;;;;;;;1999.90;999.90;;;16.30;99.90;;;;;;5088810;28;20461;-72
2023/09/19 05:38:26;;;;;;;1999.90;999.90;;;16.30;99.90;;;;;;5088842;28;20433;-71
2023/09/19 05:40:53;;;;;;;1999.90;999.90;;;16.40;99.90;;;;;;5087861;28;20425;-73
2023/09/19 05:43:20;;;;;;;1999.90;999.90;;;16.40;99.90;;;;;;5088970;28;20429;-72
2023/09/19 05:45:48;;;;;;;1999.90;999.90;;;16.40;99.90;;;;;;5089011;28;20422;-75
2023/09/19 05:48:16;;;;;;;1999.90;999.90;;;16.40;99.90;;;;;;5088897;28;20456;-75
2023/09/19 05:50:43;;;;;;;1999.90;999.90;;;16.40;99.90;;;;;;5087064;28;20429;-73
2023/09/19 05:53:11;;;;;;;1999.90;999.90;;;16.20;99.90;;;;;;5089192;28;20428;-72
2023/09/19 05:55:38;;;;;;;1999.90;999.90;;;16.20;99.90;;;;;;5088958;28;20512;-70
2023/09/19 05:58:05;;;;;;;1999.90;999.90;;;16.30;99.90;;;;;;5088556;28;20438;-72
2023/09/19 06:00:32;;;;;;;1999.90;999.90;;;16.30;99.90;;;;;;5088211;28;20532;-76
2023/09/19 06:03:01;;;;;;;1999.90;999.90;;;16.40;99.90;;;;;;5090469;28;20918;-72
2023/09/19 06:05:30;;;;;;;1999.90;999.90;;;16.30;99.90;;;;;;5093745;28;20434;-72
2023/09/19 06:07:59;;;;;;;1999.90;999.90;;;16.30;99.90;;;;;;5092354;28;20487;-69
2023/09/19 06:10:27;;;;;;;1999.90;999.90;;;16.20;99.90;;;;;;5091990;28;20433;-72
2023/09/19 06:12:55;;;;;;;1999.90;999.90;;;16.20;99.90;;;;;;5092500;28;20523;-70
2023/09/19 06:15:24;;;;;;;1999.90;999.90;;;16.20;99.90;;;;;;5093854;28;20429;-69
2023/09/19 06:17:55;;;;;;;1999.90;999.90;;;16.40;99.90;;;;;;5091407;28;20970;-75
2023/09/19 06:20:23;;;;;;;1999.90;999.90;;;16.20;99.90;;;;;;5092264;28;20514;-72
2023/09/19 06:22:51;;;;;;;1999.90;999.90;;;16.20;99.90;;;;;;5092455;28;20427;-68
2023/09/19 06:25:20;;;;;;;1999.90;999.90;;;16.20;99.90;;;;;;5093243;28;20425;-72
2023/09/19 06:27:46;;;;;;;1999.90;999.90;;;16.20;99.90;;;;;;5092934;28;20433;-72
2023/09/19 06:30:14;;;;;;;1999.90;999.90;;;16.10;99.90;;;;;;5091588;28;20444;-70
2023/09/19 06:32:43;;;;;;;1999.90;999.90;;;16.10;99.90;;;;;;5090292;28;20465;-73
2023/09/19 06:35:11;;;;;;;1999.90;999.90;;;16.10;99.90;;;;;;5092477;28;20455;-72
2023/09/19 06:37:40;;;;;;;1999.90;999.90;;;16.20;99.90;;;;;;5093016;28;20953;-71
2023/09/19 06:40:09;;;;;;;1999.90;999.90;;;16.10;99.90;;;;;;5088943;28;20440;-72
2023/09/19 06:42:37;;;;;;;1999.90;999.90;;;16.20;99.90;;;;;;5091764;28;20466;-72
2023/09/19 06:45:05;;;;;;;1999.90;999.90;;;16.10;99.90;;;;;;5086611;28;20457;-71
2023/09/19 06:47:32;;;;;;;1999.90;999.90;;;16.00;99.90;;;;;;5091076;28;20425;-71
2023/09/19 06:49:59;;;;;;;1999.90;999.90;;;16.10;99.90;;;;;;5091663;28;20430;-72
2023/09/19 06:52:27;;;;;;;1999.90;999.90;;;16.10;99.90;;;;;;5094880;28;21129;-71
2023/09/19 06:54:56;;;;;;;1999.90;999.90;;;16.10;99.90;;;;;;5090667;28;20429;-72
2023/09/19 06:57:24;;;;;;;1999.90;999.90;;;16.20;99.90;;;;;;5091962;28;20799;-71
2023/09/19 06:59:51;;;;;;;1999.90;999.90;;;16.40;99.90;;;;;;5088540;28;20433;-75
2023/09/19 07:02:18;;;;;;;1999.90;999.90;;;16.50;99.90;;;;;;5087551;28;20779;-72
2023/09/19 07:04:45;;;;;;;1999.90;999.90;;;16.60;99.90;;;;;;5092046;28;20858;-72
2023/09/19 07:07:13;;;;;;;1999.90;999.90;;;17.00;99.90;;;;;;5091520;28;20426;-71
2023/09/19 07:09:42;;;;;;;1999.90;999.90;;;17.60;99.90;;;;;;5088941;28;20426;-71
2023/09/19 07:12:11;;;;;;;1999.90;999.90;;;17.60;99.90;;;;;;5091226;28;20422;-70
2023/09/19 07:14:38;;;;;;;1999.90;999.90;;;17.80;99.90;;;;;;5090588;28;20511;-71
2023/09/19 07:17:05;;;;;;;1999.90;999.90;;;17.90;99.90;;;;;;5090327;28;20429;-72
2023/09/19 07:19:32;;;;;;;1999.90;999.90;;;18.00;99.90;;;;;;5096680;28;20437;-70
2023/09/19 07:21:59;;;;;;;1999.90;999.90;;;18.10;99.90;;;;;;5089563;28;20431;-72
2023/09/19 07:24:27;;;;;;;1999.90;999.90;;;18.00;99.90;;;;;;5091470;28;20433;-71
2023/09/19 07:26:53;;;;;;;1999.90;999.90;;;18.20;99.90;;;;;;5089870;28;20434;-69
2023/09/19 07:29:22;;;;;;;1999.90;999.90;;;18.20;99.90;;;;;;5085000;28;20947;-72
2023/09/19 07:31:49;;;;;;;1999.90;999.90;;;18.30;99.90;;;;;;5090583;28;20433;-72
2023/09/19 07:34:16;;;;;;;1999.90;999.90;;;18.60;99.90;;;;;;5090276;28;20478;-72
2023/09/19 07:36:43;;;;;;;1999.90;999.90;;;18.80;99.90;;;;;;5091897;28;20513;-74
2023/09/19 07:39:10;;;;;;;1999.90;999.90;;;18.60;99.90;;;;;;5090497;28;20765;-72
2023/09/19 07:41:37;;;;;;;1999.90;999.90;;;18.70;99.90;;;;;;5089717;28;20422;-70
2023/09/19 07:44:04;;;;;;;1999.90;999.90;;;18.90;99.90;;;;;;5091293;28;20433;-73
2023/09/19 07:46:32;;;;;;;1999.90;999.90;;;19.10;99.90;;;;;;5093610;28;20805;-72
2023/09/19 07:49:00;;;;;;;1999.90;999.90;;;19.40;99.90;;;;;;5090065;28;20438;-71
2023/09/19 07:51:26;;;;;;;1999.90;999.90;;;19.50;99.90;;;;;;5087591;28;20495;-72
2023/09/19 07:53:54;;;;;;;1999.90;999.90;;;19.40;99.90;;;;;;5090453;28;20433;-72
2023/09/19 07:56:22;;;;;;;1999.90;999.90;;;19.50;99.90;;;;;;5091428;28;20434;-72
2023/09/19 07:58:49;;;;;;;1999.90;999.90;;;19.20;99.90;;;;;;5089324;28;20458;-74
2023/09/19 08:01:16;;;;;;;1999.90;999.90;;;19.00;99.90;;;;;;5090649;28;20453;-72
2023/09/19 08:03:45;;;;;;;1999.90;999.90;;;19.00;99.90;;;;;;5092243;28;20426;-72
2023/09/19 08:06:14;;;;;;;1999.90;999.90;;;18.90;99.90;;;;;;5089193;28;20487;-72
2023/09/19 08:08:41;;;;;;;1999.90;999.90;;;18.80;99.90;;;;;;5088753;28;20434;-73
2023/09/19 08:11:11;;;;;;;1999.90;999.90;;;18.90;99.90;;;;;;5089244;28;20420;-71
2023/09/19 08:13:41;;;;;;;1999.90;999.90;;;18.80;99.90;;;;;;5090449;28;20425;-71
2023/09/19 08:16:08;;;;;;;1999.90;999.90;;;18.80;99.90;;;;;;5089126;28;20475;-72
2023/09/19 08:18:34;;;;;;;1999.90;999.90;;;19.00;99.90;;;;;;5088910;28;20941;-72
2023/09/19 08:21:03;;;;;;;1999.90;999.90;;;18.90;99.90;;;;;;5089969;28;21146;-71
2023/09/19 08:23:32;;;;;;;1999.90;999.90;;;18.80;99.90;;;;;;5091503;28;20461;-75
2023/09/19 08:26:01;;;;;;;1999.90;999.90;;;18.70;99.90;;;;;;5091170;28;20569;-69
2023/09/19 08:28:29;;;;;;;1999.90;999.90;;;18.80;99.90;;;;;;5088871;28;20430;-73
2023/09/19 08:30:58;;;;;;;1999.90;999.90;;;18.80;99.90;;;;;;5089575;28;20565;-70
2023/09/19 08:33:24;;;;;;;1999.90;999.90;;;18.80;99.90;;;;;;5090203;28;20507;-72
2023/09/19 08:35:51;;;;;;;1999.90;999.90;;;18.70;99.90;;;;;;5089453;28;20436;-73
2023/09/19 08:38:20;;;;;;;1999.90;999.90;;;18.70;99.90;;;;;;5087156;28;20900;-73
2023/09/19 08:40:46;;;;;;;1999.90;999.90;;;18.70;99.90;;;;;;5088947;28;20436;-73
2023/09/19 08:43:13;;;;;;;1999.90;999.90;;;18.90;99.90;;;;;;5089749;28;20433;-71
2023/09/19 08:45:40;;;;;;;1999.90;999.90;;;18.80;99.90;;;;;;5090020;28;20430;-73
2023/09/19 08:48:19;;;;;;;1999.90;999.90;;;18.90;99.90;;;;;;5087856;28;20429;-73
2023/09/19 08:50:51;;;;;;;1999.90;999.90;;;19.00;99.90;;;;;;5090093;28;20517;-72
2023/09/19 08:53:30;;;;;;;1999.90;999.90;;;19.10;99.90;;;;;;5089542;28;20436;-75
2023/09/19 08:55:57;;;;;;;1999.90;999.90;;;19.10;99.90;;;;;;5078235;28;21440;-73
2023/09/19 08:58:29;;;;;;;1999.90;999.90;;;19.10;99.90;;;;;;5084026;28;20429;-73
2023/09/19 09:00:57;;;;;;;1999.90;999.90;;;18.90;99.90;;;;;;5088152;28;20454;-72
2023/09/19 09:03:24;;;;;;;1999.90;999.90;;;19.00;99.90;;;;;;5089879;28;20410;-74
2023/09/19 09:05:52;;;;;;;1999.90;999.90;;;18.90;99.90;;;;;;5091939;28;20426;-72
2023/09/19 09:08:21;;;;;;;1999.90;999.90;;;18.90;99.90;;;;;;5085261;28;20445;-73
2023/09/19 09:10:51;;;;;;;1999.90;999.90;;;19.10;99.90;;;;;;5090477;28;20410;-73
2023/09/19 09:13:18;;;;;;;1999.90;999.90;;;19.50;99.90;;;;;;5088799;28;20422;-73
2023/09/19 09:15:45;;;;;;;1999.90;999.90;;;19.30;99.90;;;;;;5088373;28;20439;-72
2023/09/19 09:18:13;;;;;;;1999.90;999.90;;;19.10;99.90;;;;;;5091653;28;20430;-71
2023/09/19 09:20:40;;;;;;;1999.90;999.90;;;19.10;99.90;;;;;;5087718;28;20977;-72
2023/09/19 09:23:06;;;;;;;1999.90;999.90;;;19.30;99.90;;;;;;5084772;28;20854;-76
2023/09/19 09:25:54;;;;;;;1999.90;999.90;;;19.40;99.90;;;;;;5090215;28;20433;-73
2023/09/19 09:28:22;;;;;;;1999.90;999.90;;;19.40;99.90;;;;;;5089165;28;20429;-72
2023/09/19 09:30:50;;;;;;;1999.90;999.90;;;19.50;99.90;;;;;;5090155;28;20422;-72
2023/09/19 09:33:17;;;;;;;1999.90;999.90;;;19.60;99.90;;;;;;5088198;28;20436;-72
2023/09/19 09:35:52;;;;;;;1999.90;999.90;;;19.80;99.90;;;;;;5087480;28;20426;-72
2023/09/19 09:38:20;;;;;;;1999.90;999.90;;;20.00;99.90;;;;;;5087550;28;20440;-72
2023/09/19 09:40:58;;;;;;;1999.90;999.90;;;20.00;99.90;;;;;;5088446;28;20854;-73
2023/09/19 09:43:34;;;;;;;1999.90;999.90;;;19.70;99.90;;;;;;5092382;28;20426;-72
2023/09/19 09:46:58;;;;;;;1999.90;999.90;;;19.50;99.90;;;;;;5085193;28;20418;-72
2023/09/19 09:49:26;;;;;;;1999.90;999.90;;;19.50;99.90;;;;;;5089019;28;20410;-73
2023/09/19 09:52:05;;;;;;;1999.90;999.90;;;19.40;99.90;;;;;;5089905;28;20421;-72
2023/09/19 09:54:36;;;;;;;1999.90;999.90;;;19.50;99.90;;;;;;5089904;28;20440;-72
2023/09/19 09:57:17;;;;;;;1999.90;999.90;;;19.60;99.90;;;;;;5089190;28;20436;-73
2023/09/19 09:59:49;;;;;;;1999.90;999.90;;;19.80;99.90;;;;;;5090082;28;20406;-72
2023/09/19 10:02:23;;;;;;;1999.90;999.90;;;20.10;99.90;;;;;;5089745;28;20509;-72
2023/09/19 10:04:58;;;;;;;1999.90;999.90;;;20.00;99.90;;;;;;5088574;28;20425;-72
2023/09/19 10:07:31;;;;;;;1999.90;999.90;;;19.80;99.90;;;;;;5088081;28;20430;-72
2023/09/19 10:10:05;;;;;;;1999.90;999.90;;;19.60;99.90;;;;;;5089273;28;20441;-72
2023/09/19 10:12:35;;;;;;;1999.90;999.90;;;19.60;99.90;;;;;;5087880;28;20471;-72
2023/09/19 10:15:06;;;;;;;1999.90;999.90;;;19.70;99.90;;;;;;5090517;28;20847;-72
2023/09/19 10:17:35;;;;;;;1999.90;999.90;;;19.00;99.90;;;;;;5088065;28;20441;-72
2023/09/19 10:20:09;;;;;;;1999.90;999.90;;;19.20;99.90;;;;;;5088754;28;20432;-74
2023/09/19 10:22:36;;;;;;;1999.90;999.90;;;19.30;99.90;;;;;;5089484;28;20422;-74
2023/09/19 10:25:07;;;;;;;1999.90;999.90;;;19.30;99.90;;;;;;5090768;28;20472;-71
2023/09/19 10:27:37;;;;;;;1999.90;999.90;;;19.30;99.90;;;;;;5088922;28;20962;-71
2023/09/19 10:30:08;;;;;;;1999.90;999.90;;;19.60;99.90;;;;;;5089499;28;20420;-73
2023/09/19 10:32:36;;;;;;;1999.90;999.90;;;19.60;99.90;;;;;;5089630;28;20414;-71
2023/09/19 10:35:06;;;;;;;1999.90;999.90;;;19.90;99.90;;;;;;5088587;28;20502;-71
2023/09/19 10:37:35;;;;;;;1999.90;999.90;;;20.00;99.90;;;;;;5086067;28;20919;-73
2023/09/19 10:40:01;;;;;;;1999.90;999.90;;;20.10;99.90;;;;;;5089103;28;20406;-73
2023/09/19 10:42:29;;;;;;;1999.90;999.90;;;20.40;99.90;;;;;;5086983;28;20424;-72
2023/09/19 10:45:00;;;;;;;1999.90;999.90;;;20.30;99.90;;;;;;5083706;28;20494;-73
2023/09/19 10:47:27;;;;;;;1999.90;999.90;;;20.40;99.90;;;;;;5087991;28;20425;-72
2023/09/19 10:49:54;;;;;;;1999.90;999.90;;;20.40;99.90;;;;;;5093148;28;20444;-72
2023/09/19 10:52:24;;;;;;;1999.90;999.90;;;20.50;99.90;;;;;;5092685;28;20416;-72
2023/09/19 10:54:57;;;;;;;1999.90;999.90;;;20.40;99.90;;;;;;5091827;28;20907;-73
2023/09/19 10:57:27;;;;;;;1999.90;999.90;;;20.10;99.90;;;;;;5090915;28;20440;-74
2023/09/19 11:00:21;;;;;;;1999.90;999.90;;;20.10;99.90;;;;;;5090940;28;20446;-72
2023/09/19 11:03:18;;;;;;;1999.90;999.90;;;20.20;99.90;;;;;;5090415;28;20950;-72
2023/09/19 11:06:03;;;;;;;1999.90;999.90;;;20.60;99.90;;;;;;5082227;28;20789;-72
2023/09/19 11:08:30;;;;;;;1999.90;999.90;;;20.40;99.90;;;;;;5092189;28;20432;-72
2023/09/19 11:10:59;;;;;;;1999.90;999.90;;;20.40;99.90;;;;;;5087784;28;20837;-73
2023/09/19 11:13:26;;;;;;;1999.90;999.90;;;20.70;99.90;;;;;;5089983;28;20454;-72
2023/09/19 11:16:23;;;;;;;1999.90;999.90;;;20.90;99.90;;;;;;5092328;28;20425;-72
2023/09/19 11:18:57;;;;;;;1999.90;999.90;;;20.80;99.90;;;;;;5092054;28;20444;-72
2023/09/19 11:21:56;;;;;;;1999.90;999.90;;;20.80;99.90;;;;;;5091704;28;20426;-72
2023/09/19 11:24:36;;;;;;;1999.90;999.90;;;20.50;99.90;;;;;;5006683;28;20949;-76
2023/09/19 11:27:17;;;;;;;1999.90;999.90;;;20.60;99.90;;;;;;5006387;28;20421;-73
2023/09/19 11:29:45;;;;;;;1999.90;999.90;;;20.80;99.90;;;;;;5060319;28;20964;-71
2023/09/19 11:32:17;;;;;;;1999.90;999.90;;;20.70;99.50;;;;;;5092186;28;20426;-74
2023/09/19 11:34:45;;;;;;;1999.90;999.90;;;20.80;99.90;;;;;;5090752;28;20434;-71
2023/09/19 11:38:11;;;;;;;1999.90;999.90;;;20.70;98.70;;;;;;5089729;28;20413;-70
2023/09/19 11:40:39;;;;;;;1999.90;999.90;;;20.60;99.20;;;;;;5091159;28;20423;-72
2023/09/19 11:43:34;;;;;;;1999.90;999.90;;;20.70;98.10;;;;;;5089750;28;20987;-72
2023/09/19 11:46:10;;;;;;;1999.90;999.90;;;20.50;98.50;;;;;;5088224;28;20436;-69
2023/09/19 11:48:40;;;;;;;1999.90;999.90;;;20.40;99.30;;;;;;5090108;28;20426;-71
2023/09/19 11:51:27;;;;;;;1999.90;999.90;;;20.30;98.60;;;;;;5090842;28;20437;-73
2023/09/19 11:53:55;;;;;;;1999.90;999.90;;;20.20;99.30;;;;;;5090721;28;20430;-70
2023/09/19 11:56:24;;;;;;;1999.90;999.90;;;20.30;99.20;;;;;;5090354;28;20974;-72
2023/09/19 11:58:53;;;;;;;1999.90;999.90;;;20.40;99.20;;;;;;5090951;28;20430;-72
2023/09/19 12:01:24;;;;;;;1999.90;999.90;;;20.40;99.70;;;;;;5088020;28;20437;-71
2023/09/19 12:03:56;;;;;;;1999.90;999.90;;;20.60;99.30;;;;;;5090345;28;20899;-71
2023/09/19 12:06:24;;;;;;;1999.90;999.90;;;20.80;99.50;;;;;;5089862;28;20919;-72
2023/09/19 12:08:53;;;;;;;1999.90;999.90;;;20.40;99.20;;;;;;5092923;28;20434;-71
2023/09/19 12:11:23;;;;;;;1999.90;999.90;;;20.40;99.50;;;;;;5091028;28;20418;-72